This is the latest recevied weather packets stored in our database for station/object 9A3SWO. If no packets are shown the sender has not sent any weather packets the latest 10 day(s).
| Time | Temp. | Humidity | Pressure | Rain* | Wind** | Luminosity | Snow |
|---|---|---|---|---|---|---|---|
| 1788074309 | 25.56° C | 49% | 1018.2 hPa | - | - | - | - |
| 1788073710 | 25° C | 51% | 1018.3 hPa | - | - | - | - |
| 1788073110 | 24.44° C | 53% | 1018.2 hPa | - | - | - | - |
| 1788072509 | 24.44° C | 54% | 1018.2 hPa | - | - | - | - |
| 1788071910 | 23.33° C | 55% | 1018.4 hPa | - | - | - | - |
| 1788071309 | 23.33° C | 55% | 1018.5 hPa | - | - | - | - |
| 1788070709 | 23.33° C | 54% | 1018.4 hPa | - | - | - | - |
| 1788070109 | 23.33° C | 54% | 1018.4 hPa | - | - | - | - |
| 1788069509 | 23.89° C | 51% | 1018.3 hPa | - | - | - | - |
| 1788068910 | 22.78° C | 53% | 1018.4 hPa | - | - | - | - |
| 1788068309 | 23.89° C | 50% | 1018.2 hPa | - | - | - | - |
| 1788067716 | 23.89° C | 50% | 1018.1 hPa | - | - | - | - |
| 1788067109 | 23.33° C | 51% | 1018.1 hPa | - | - | - | - |
| 1788066509 | 23.33° C | 51% | 1018.1 hPa | - | - | - | - |
| 1788065910 | 22.78° C | 52% | 1018.1 hPa | - | - | - | - |
| 1788065312 | 22.22° C | 53% | 1018.2 hPa | - | - | - | - |
| 1788064709 | 20.56° C | 57% | 1018.3 hPa | - | - | - | - |
| 1788064109 | 20.56° C | 58% | 1018.2 hPa | - | - | - | - |
| 1788063509 | 20.56° C | 58% | 1018.2 hPa | - | - | - | - |
| 1788062909 | 20.56° C | 58% | 1018.1 hPa | - | - | - | - |
| 1788062309 | 20.56° C | 57% | 1018.2 hPa | - | - | - | - |
| 1788061709 | 21.11° C | 57% | 1018.1 hPa | - | - | - | - |
| 1788061109 | 21.11° C | 57% | 1018.1 hPa | - | - | - | - |
| 1788060509 | 21.11° C | 57% | 1018.1 hPa | - | - | - | - |
| 1788059908 | 21.11° C | 57% | 1018.2 hPa | - | - | - | - |
* Rain since midnight (hover to see other rain measurements)
** Current wind speed in m/s (hover to see current wind gust speed)